Time;durP1;ratioP1;P1;durP2;ratioP2;P2;SDS_P1;SDS_P2;PMS_P1;PMS_P2;Temp;Humidity;BMP_temperature;BMP_pressure;BME280_temperature;BME280_humidity;BME280_pressure;Samples;Min_cycle;Max_cycle;Signal;HPM_P1;HPM_P2
2022/01/03 00:00:46;;;;;;;;;;;7.70;99.90;;;;;;6131672;23;19921;-83
2022/01/03 00:03:12;;;;;;;;;;;7.70;99.90;;;;;;6135326;23;19925;-82
2022/01/03 00:05:38;;;;;;;;;;;7.70;99.90;;;;;;6161366;23;19974;-82
2022/01/03 00:08:05;;;;;;;;;;;8.00;99.90;;;;;;6132505;23;19921;-82
2022/01/03 00:10:33;;;;;;;;;;;7.80;99.90;;;;;;6134323;23;19956;-82
2022/01/03 00:12:58;;;;;;;;;;;7.80;99.90;;;;;;6157265;23;19942;-79
2022/01/03 00:15:24;;;;;;;;;;;7.90;99.90;;;;;;6157630;23;20333;-81
2022/01/03 00:17:50;;;;;;;;;;;7.90;99.90;;;;;;6156854;23;20343;-79
2022/01/03 00:20:16;;;;;;;;;;;8.00;99.90;;;;;;6128496;23;20392;-81
2022/01/03 00:22:59;;;;;;;;;;;8.00;99.90;;;;;;6126533;23;19920;-80
2022/01/03 00:25:26;;;;;;;;;;;8.10;99.90;;;;;;6128460;23;19976;-82
2022/01/03 00:28:02;;;;;;;;;;;8.10;99.90;;;;;;6125440;23;19921;-79
2022/01/03 00:38:14;;;;;;;;;;;8.20;99.90;;;;;;6149888;23;19931;-80
2022/01/03 00:40:42;;;;;;;;;;;8.20;99.90;;;;;;6125661;23;19925;-84
2022/01/03 02:13:45;;;;;;;;;;;8.60;99.90;;;;;;6136506;23;20191;-80
2022/01/03 02:17:21;;;;;;;;;;;8.60;99.90;;;;;;6153040;23;20000;-81
2022/01/03 02:52:54;;;;;;;;;;;8.90;99.90;;;;;;5988869;23;19922;-85
2022/01/03 02:59:07;;;;;;;;;;;9.30;99.90;;;;;;5934936;24;19923;-81
2022/01/03 03:21:02;;;;;;;;;;;7.20;99.90;;;;;;5965482;23;19937;-80
2022/01/03 03:23:27;;;;;;;;;;;8.70;99.90;;;;;;6071450;23;19922;-81
2022/01/03 03:25:53;;;;;;;;;;;8.70;99.90;;;;;;6117535;23;19921;-81
2022/01/03 03:28:18;;;;;;;;;;;8.70;99.90;;;;;;6154599;23;19931;-82
2022/01/03 03:30:46;;;;;;;;;;;8.70;99.90;;;;;;6154058;23;20330;-82
2022/01/03 03:33:19;;;;;;;;;;;8.60;99.90;;;;;;6154020;23;19921;-81
2022/01/03 03:35:45;;;;;;;;;;;8.60;99.90;;;;;;6129787;23;20269;-82
2022/01/03 03:38:11;;;;;;;;;;;8.60;99.90;;;;;;6124011;23;19921;-83
2022/01/03 03:40:37;;;;;;;;;;;8.60;99.90;;;;;;6151801;23;19921;-81
2022/01/03 03:43:03;;;;;;;;;;;8.50;99.90;;;;;;6131605;23;20310;-81
2022/01/03 03:45:28;;;;;;;;;;;8.50;99.90;;;;;;6129671;23;19992;-80
2022/01/03 03:47:55;;;;;;;;;;;8.50;99.90;;;;;;6150415;23;20306;-86
2022/01/03 03:50:21;;;;;;;;;;;8.50;99.90;;;;;;6150885;23;19921;-82
2022/01/03 04:23:10;;;;;;;;;;;8.30;99.90;;;;;;6046717;23;20298;-81
2022/01/03 04:25:36;;;;;;;;;;;9.00;99.90;;;;;;6129342;23;19924;-83
2022/01/03 04:28:02;;;;;;;;;;;8.30;99.90;;;;;;6130051;23;19925;-81
2022/01/03 04:30:27;;;;;;;;;;;8.30;99.90;;;;;;6104743;23;20043;-83
2022/01/03 04:32:53;;;;;;;;;;;8.40;99.90;;;;;;6105812;23;19935;-86
2022/01/03 04:35:19;;;;;;;;;;;8.30;99.90;;;;;;6106773;23;19945;-82
2022/01/03 04:37:44;;;;;;;;;;;8.30;99.90;;;;;;6107836;23;19945;-83
2022/01/03 04:40:10;;;;;;;;;;;8.40;99.90;;;;;;6130732;23;19925;-82
2022/01/03 04:42:35;;;;;;;;;;;8.40;99.90;;;;;;6131647;23;19921;-82
2022/01/03 04:45:02;;;;;;;;;;;8.40;99.90;;;;;;6131227;23;19921;-82
2022/01/03 04:47:28;;;;;;;;;;;8.40;99.90;;;;;;6129459;23;19929;-82
2022/01/03 04:49:53;;;;;;;;;;;8.40;99.90;;;;;;6131376;23;19948;-83
2022/01/03 04:52:19;;;;;;;;;;;8.40;99.90;;;;;;6128039;23;19921;-81
2022/01/03 04:54:44;;;;;;;;;;;8.40;99.90;;;;;;6103694;23;19921;-82
2022/01/03 04:57:10;;;;;;;;;;;8.40;99.90;;;;;;6127337;23;19917;-82
2022/01/03 04:59:36;;;;;;;;;;;8.40;99.90;;;;;;6129180;23;19920;-83
2022/01/03 05:02:03;;;;;;;;;;;8.30;99.90;;;;;;6129961;23;19928;-81
2022/01/03 05:04:32;;;;;;;;;;;8.40;99.90;;;;;;6129102;23;19921;-83
2022/01/03 05:06:58;;;;;;;;;;;8.40;99.90;;;;;;6127430;23;19928;-82
2022/01/03 05:09:23;;;;;;;;;;;8.40;99.90;;;;;;6104070;23;19921;-80
2022/01/03 05:11:49;;;;;;;;;;;8.40;99.90;;;;;;6127153;23;19925;-81
2022/01/03 05:14:14;;;;;;;;;;;8.40;99.90;;;;;;6129295;23;19977;-82
2022/01/03 05:16:42;;;;;;;;;;;8.40;99.90;;;;;;6129431;23;19929;-83
2022/01/03 05:19:08;;;;;;;;;;;8.40;99.90;;;;;;6128927;23;19920;-81
2022/01/03 05:21:33;;;;;;;;;;;8.40;99.90;;;;;;6128463;23;19971;-79
2022/01/03 05:23:59;;;;;;;;;;;8.40;99.90;;;;;;6107091;23;19921;-81
2022/01/03 05:26:24;;;;;;;;;;;8.40;99.90;;;;;;6132426;23;19941;-82
2022/01/03 05:28:50;;;;;;;;;;;8.70;99.90;;;;;;6132438;23;19996;-81
2022/01/03 05:31:16;;;;;;;;;;;8.40;99.90;;;;;;6106676;23;19965;-81
2022/01/03 05:33:42;;;;;;;;;;;8.40;99.90;;;;;;6105054;23;20400;-82
2022/01/03 05:36:08;;;;;;;;;;;8.40;99.90;;;;;;6105756;23;19928;-81
2022/01/03 05:38:33;;;;;;;;;;;8.40;99.90;;;;;;6131410;23;19935;-81
2022/01/03 05:40:59;;;;;;;;;;;8.40;99.90;;;;;;6133633;23;19921;-82
2022/01/03 05:43:25;;;;;;;;;;;8.40;99.90;;;;;;6132209;23;19921;-82
2022/01/03 05:45:50;;;;;;;;;;;8.40;99.90;;;;;;6131468;23;19921;-81
2022/01/03 05:48:16;;;;;;;;;;;8.40;99.90;;;;;;6131644;23;19921;-82
2022/01/03 05:50:41;;;;;;;;;;;8.40;99.90;;;;;;6127507;23;19928;-82
2022/01/03 05:53:07;;;;;;;;;;;8.30;99.90;;;;;;6128368;23;19941;-82
2022/01/03 05:55:32;;;;;;;;;;;8.30;99.90;;;;;;6125949;23;19956;-82
2022/01/03 05:57:58;;;;;;;;;;;8.30;99.90;;;;;;6129067;23;20330;-82
2022/01/03 06:00:25;;;;;;;;;;;8.30;99.90;;;;;;6130325;23;19920;-81
2022/01/03 07:20:01;;;;;;;;;;;8.50;99.90;;;;;;6100390;23;19968;-83
2022/01/03 07:22:26;;;;;;;;;;;8.50;99.90;;;;;;6133317;23;19921;-81
2022/01/03 07:45:35;;;;;;;;;;;8.50;99.90;;;;;;6153030;23;19932;-82
2022/01/03 08:04:43;;;;;;;;;;;8.60;99.90;;;;;;6137914;23;19919;-82
2022/01/03 08:07:08;;;;;;;;;;;7.90;99.90;;;;;;6096411;23;19924;-81
2022/01/03 08:09:36;;;;;;;;;;;8.60;99.90;;;;;;6116907;23;19928;-84
2022/01/03 08:12:02;;;;;;;;;;;8.60;99.90;;;;;;6118073;23;19959;-83
2022/01/03 08:14:28;;;;;;;;;;;8.60;99.90;;;;;;6093645;23;19932;-86
2022/01/03 08:43:14;;;;;;;;;;;8.90;99.90;;;;;;6084333;23;19944;-82
2022/01/03 09:02:15;;;;;;;;;;;9.00;99.90;;;;;;6154005;23;19939;-85
2022/01/03 09:04:40;;;;;;;;;;;9.00;99.90;;;;;;6149981;23;20333;-86
2022/01/03 09:07:06;;;;;;;;;;;9.20;99.90;;;;;;6149479;23;19934;-84
2022/01/03 09:09:34;;;;;;;;;;;9.00;99.90;;;;;;6124752;23;20253;-85
2022/01/03 09:12:00;;;;;;;;;;;9.00;99.90;;;;;;6150008;23;19931;-81
2022/01/03 09:14:26;;;;;;;;;;;9.00;99.90;;;;;;6147365;23;20282;-82
2022/01/03 09:16:52;;;;;;;;;;;10.40;99.90;;;;;;6121767;23;19920;-82
2022/01/03 09:19:20;;;;;;;;;;;9.00;99.90;;;;;;6150209;23;19921;-83
2022/01/03 09:21:45;;;;;;;;;;;9.50;99.90;;;;;;6147715;23;19921;-80
2022/01/03 09:24:24;;;;;;;;;;;8.60;99.90;;;;;;6149678;23;19995;-82
2022/01/03 10:18:10;;;;;;;;;;;;;;;;;;;;;
2022/01/03 10:39:54;;;;;;;;;;;9.80;99.90;;;;;;6149354;23;19991;-84
2022/01/03 10:42:21;;;;;;;;;;;9.80;99.90;;;;;;6122380;23;19925;-83
2022/01/03 10:44:49;;;;;;;;;;;9.80;99.90;;;;;;6146163;23;19968;-86
2022/01/03 11:05:39;;;;;;;;;;;9.90;99.90;;;;;;6148459;23;19975;-81
2022/01/03 11:10:44;;;;;;;;;;;9.90;99.90;;;;;;6121182;23;20230;-81
2022/01/03 11:13:14;;;;;;;;;;;9.90;99.90;;;;;;6154461;23;19924;-81
2022/01/03 13:51:01;;;;;;;;;;;9.80;99.90;;;;;;6124848;23;19960;-82
2022/01/03 13:53:26;;;;;;;;;;;9.80;99.90;;;;;;6149372;23;19991;-84
2022/01/03 13:55:54;;;;;;;;;;;9.80;99.90;;;;;;6136535;23;19924;-83
2022/01/03 13:58:20;;;;;;;;;;;9.80;99.90;;;;;;6135186;23;19928;-84
2022/01/03 14:00:47;;;;;;;;;;;9.80;99.90;;;;;;6161279;23;19928;-81
2022/01/03 14:03:15;;;;;;;;;;;9.90;99.90;;;;;;6166736;23;20046;-85
2022/01/03 14:05:43;;;;;;;;;;;9.80;99.90;;;;;;6169460;23;19999;-85
2022/01/03 14:08:10;;;;;;;;;;;9.90;99.90;;;;;;6164797;23;20253;-80
2022/01/03 14:10:39;;;;;;;;;;;9.90;99.90;;;;;;6157959;23;19993;-80
2022/01/03 15:04:34;;;;;;;;;;;9.50;99.90;;;;;;6142634;23;19921;-84
2022/01/03 15:07:12;;;;;;;;;;;9.50;99.90;;;;;;6122476;23;19933;-83
2022/01/03 15:09:38;;;;;;;;;;;9.40;99.90;;;;;;6147359;23;20318;-82
2022/01/03 15:12:04;;;;;;;;;;;9.50;99.90;;;;;;6148122;23;19925;-85
2022/01/03 15:14:29;;;;;;;;;;;9.50;99.90;;;;;;6151203;23;19920;-84
2022/01/03 15:16:58;;;;;;;;;;;9.50;99.90;;;;;;6129189;23;19992;-81
2022/01/03 15:19:24;;;;;;;;;;;9.80;99.90;;;;;;6153786;23;20278;-80
2022/01/03 15:21:49;;;;;;;;;;;9.50;99.90;;;;;;6157196;23;19921;-80
2022/01/03 15:24:16;;;;;;;;;;;9.40;99.90;;;;;;6164613;23;19924;-83
2022/01/03 15:26:42;;;;;;;;;;;9.50;99.90;;;;;;6156983;23;19931;-81
2022/01/03 15:29:07;;;;;;;;;;;9.50;99.90;;;;;;6129735;23;19951;-81
2022/01/03 15:31:33;;;;;;;;;;;9.40;99.90;;;;;;6155309;23;20008;-80
2022/01/03 15:33:58;;;;;;;;;;;9.40;99.90;;;;;;6153483;23;19920;-82
2022/01/03 15:36:24;;;;;;;;;;;9.40;99.90;;;;;;6129463;23;20333;-79
2022/01/03 15:38:50;;;;;;;;;;;9.40;99.90;;;;;;6150906;23;19960;-81
2022/01/03 15:41:16;;;;;;;;;;;9.50;99.90;;;;;;6150601;23;20305;-79
2022/01/03 15:43:44;;;;;;;;;;;9.40;99.90;;;;;;6150028;23;19925;-79
2022/01/03 15:46:11;;;;;;;;;;;9.30;99.90;;;;;;6151485;23;19931;-85
2022/01/03 15:48:36;;;;;;;;;;;9.40;99.90;;;;;;6127852;23;19921;-80
2022/01/03 15:51:02;;;;;;;;;;;9.40;99.90;;;;;;6155736;23;19983;-81
2022/01/03 15:53:28;;;;;;;;;;;9.40;99.90;;;;;;6155723;23;20003;-85
2022/01/03 15:55:57;;;;;;;;;;;9.40;99.90;;;;;;6154618;23;20120;-81
2022/01/03 16:01:00;;;;;;;;;;;9.30;99.90;;;;;;6120230;23;19998;-83
2022/01/03 16:06:55;;;;;;;;;;;9.00;99.90;;;;;;6075831;23;19932;-84
2022/01/03 16:13:52;;;;;;;;;;;8.50;99.90;;;;;;6093888;23;19950;-83
2022/01/03 16:20:04;;;;;;;;;;;9.20;99.90;;;;;;6002230;23;19927;-81
2022/01/03 16:22:29;;;;;;;;;;;9.50;99.90;;;;;;6094762;23;19921;-81
2022/01/03 16:24:55;;;;;;;;;;;9.20;99.90;;;;;;6108493;23;19925;-83
2022/01/03 16:27:21;;;;;;;;;;;9.60;99.90;;;;;;6108663;23;19933;-82
2022/01/03 23:10:27;;;;;;;;;;;7.90;99.90;;;;;;6147954;23;19985;-81
2022/01/03 23:20:38;;;;;;;;;;;8.00;99.90;;;;;;6148038;23;20038;-80
2022/01/03 23:41:05;;;;;;;;;;;7.90;99.90;;;;;;6157182;23;19957;-79
2022/01/03 23:53:48;;;;;;;;;;;7.90;99.90;;;;;;6038672;23;20037;-78
2022/01/03 23:56:14;;;;;;;;;;;7.30;99.90;;;;;;6010131;23;20009;-79
2022/01/03 23:58:40;;;;;;;;;;;8.50;99.90;;;;;;6147773;23;19933;-79
